createdAt,value
2019-04-14T00:01:54.772Z,12.37
2019-04-14T00:04:31.323Z,12.47
2019-04-14T00:06:59.297Z,11.93
2019-04-14T00:09:27.451Z,12.47
2019-04-14T00:11:55.320Z,12.83
2019-04-14T00:14:23.347Z,13.40
2019-04-14T00:16:51.375Z,16.37
2019-04-14T00:19:19.543Z,18.23
2019-04-14T00:21:47.837Z,28.80
2019-04-14T00:24:16.258Z,26.67
2019-04-14T00:26:44.550Z,27.10
2019-04-14T00:29:13.062Z,24.33
2019-04-14T00:31:41.262Z,22.57
2019-04-14T00:34:26.691Z,18.77
2019-04-14T00:37:05.571Z,18.60
2019-04-14T00:39:35.792Z,15.03
2019-04-14T00:42:21.729Z,13.40
2019-04-14T00:44:55.990Z,14.63
2019-04-14T00:47:49.247Z,13.67
2019-04-14T00:50:06.497Z,12.83
2019-04-14T00:52:34.819Z,14.30
2019-04-14T00:55:03.312Z,14.23
2019-04-14T00:57:31.306Z,14.07
2019-04-14T00:59:59.574Z,14.90
2019-04-14T01:02:27.563Z,14.10
2019-04-14T01:04:55.636Z,13.23
2019-04-14T01:07:24.212Z,13.83
2019-04-14T01:09:53.195Z,13.80
2019-04-14T01:12:21.391Z,15.03
2019-04-14T01:14:49.632Z,14.90
2019-04-14T01:17:17.736Z,15.37
2019-04-14T01:19:46.003Z,14.00
2019-04-14T01:22:14.296Z,14.03
2019-04-14T01:24:42.525Z,14.10
2019-04-14T01:27:10.546Z,14.40
2019-04-14T01:29:38.496Z,15.93
2019-04-14T01:32:06.600Z,16.90
2019-04-14T01:34:34.831Z,16.80
2019-04-14T01:37:02.990Z,17.87
2019-04-14T01:39:30.841Z,16.80
2019-04-14T01:42:00.617Z,15.50
2019-04-14T01:44:28.530Z,16.10
2019-04-14T01:46:56.864Z,15.70
2019-04-14T01:49:24.819Z,15.50
2019-04-14T01:52:18.817Z,14.83
2019-04-14T01:55:13.271Z,15.57
2019-04-14T01:57:50.237Z,14.67
2019-04-14T02:00:46.688Z,14.77
2019-04-14T02:03:14.932Z,14.23
2019-04-14T02:05:43.350Z,14.77
2019-04-14T02:08:11.336Z,15.17
2019-04-14T02:10:39.581Z,13.67
2019-04-14T02:13:07.305Z,14.47
2019-04-14T02:15:35.272Z,15.10
2019-04-14T02:18:03.224Z,15.17
2019-04-14T02:20:31.887Z,15.70
2019-04-14T02:22:59.877Z,16.10
2019-04-14T02:25:27.649Z,16.50
2019-04-14T02:27:55.886Z,15.10
2019-04-14T02:30:28.397Z,15.27
2019-04-14T02:33:24.066Z,15.60
2019-04-14T02:36:04.007Z,15.10
2019-04-14T02:40:45.974Z,15.97
2019-04-14T02:43:23.818Z,15.53
2019-04-14T02:45:50.533Z,15.30
2019-04-14T02:50:49.820Z,16.20
2019-04-14T02:53:30.137Z,15.87
2019-04-14T02:55:48.646Z,16.43
2019-04-14T02:58:20.346Z,16.27
2019-04-14T03:00:47.991Z,15.60
2019-04-14T03:03:27.895Z,15.37
2019-04-14T03:08:17.163Z,15.23
2019-04-14T03:10:47.290Z,15.37
2019-04-14T03:15:48.190Z,15.10
2019-04-14T03:18:38.041Z,16.00
2019-04-14T03:21:13.670Z,15.10
2019-04-14T03:23:48.887Z,15.93
2019-04-14T03:26:17.826Z,15.80
2019-04-14T03:28:50.755Z,15.80
2019-04-14T03:37:24.080Z,16.23
2019-04-14T03:44:09.952Z,15.77
2019-04-14T03:46:36.277Z,14.77
2019-04-14T03:51:43.201Z,15.17
2019-04-14T03:53:51.932Z,16.23
2019-04-14T03:56:18.409Z,15.70
2019-04-14T03:58:48.592Z,15.27
2019-04-14T04:01:17.258Z,15.00
2019-04-14T04:03:45.816Z,15.40
2019-04-14T04:06:13.947Z,16.17
2019-04-14T04:08:42.369Z,16.27
2019-04-14T04:11:10.580Z,15.97
2019-04-14T04:13:39.040Z,15.90
2019-04-14T04:16:29.193Z,16.23
2019-04-14T04:19:08.251Z,16.73
2019-04-14T04:21:49.045Z,17.20
2019-04-14T04:24:37.030Z,16.87
2019-04-14T04:27:18.015Z,17.73
2019-04-14T04:30:05.875Z,18.67
2019-04-14T04:32:53.687Z,15.90
2019-04-14T04:35:34.738Z,17.03
2019-04-14T04:38:16.348Z,17.73
2019-04-14T04:40:44.702Z,16.93
2019-04-14T04:43:12.929Z,16.60
2019-04-14T04:45:45.157Z,17.23
2019-04-14T04:48:13.241Z,18.43
2019-04-14T04:50:41.069Z,17.77
2019-04-14T04:53:09.211Z,16.33
2019-04-14T04:55:37.403Z,16.83
2019-04-14T04:58:05.651Z,16.73
2019-04-14T05:00:33.736Z,18.07
2019-04-14T05:03:01.467Z,18.00
2019-04-14T05:05:57.918Z,18.10
2019-04-14T05:08:26.675Z,18.60
2019-04-14T05:11:03.648Z,19.50
2019-04-14T05:13:36.087Z,19.63
2019-04-14T05:16:04.416Z,20.50
2019-04-14T05:18:32.093Z,20.80
2019-04-14T05:21:00.133Z,20.20
2019-04-14T05:23:27.911Z,21.13
2019-04-14T05:25:56.172Z,21.60
2019-04-14T05:28:24.595Z,21.30
2019-04-14T05:30:52.786Z,21.60
2019-04-14T05:33:21.112Z,21.57
2019-04-14T05:35:49.032Z,21.83
2019-04-14T05:38:17.043Z,21.07
2019-04-14T05:40:45.069Z,21.03
2019-04-14T05:43:14.542Z,20.70
2019-04-14T05:45:43.646Z,21.57
2019-04-14T05:48:11.867Z,20.97
2019-04-14T05:50:40.336Z,21.20
2019-04-14T05:53:08.692Z,20.77
2019-04-14T05:55:37.338Z,20.90
2019-04-14T05:58:05.728Z,21.17
2019-04-14T06:00:34.511Z,20.73
2019-04-14T06:03:02.165Z,20.87
2019-04-14T06:05:30.136Z,22.00
2019-04-14T06:07:58.841Z,21.23
2019-04-14T06:10:26.859Z,21.67
2019-04-14T06:12:54.888Z,20.40
2019-04-14T06:15:22.889Z,20.07
2019-04-14T06:17:50.928Z,19.73
2019-04-14T06:20:19.476Z,19.80
2019-04-14T06:22:47.472Z,21.00
2019-04-14T06:25:15.449Z,21.97
2019-04-14T06:27:43.822Z,21.33
2019-04-14T06:30:46.376Z,22.30
2019-04-14T06:33:37.828Z,21.57
2019-04-14T06:36:23.928Z,20.17
2019-04-14T06:38:57.387Z,19.50
2019-04-14T06:41:25.468Z,20.60
2019-04-14T06:43:53.131Z,21.03
2019-04-14T06:46:21.400Z,19.93
2019-04-14T06:48:49.436Z,21.03
2019-04-14T06:51:17.572Z,20.60
2019-04-14T06:53:45.247Z,20.70
2019-04-14T06:56:13.548Z,20.70
2019-04-14T06:58:41.235Z,21.23
2019-04-14T07:01:09.698Z,19.93
2019-04-14T07:03:38.428Z,21.30
2019-04-14T07:06:06.737Z,19.97
2019-04-14T07:08:35.043Z,20.80
2019-04-14T07:11:03.102Z,19.10
2019-04-14T07:13:31.932Z,20.30
2019-04-14T07:16:00.307Z,18.80
2019-04-14T07:18:28.634Z,18.97
2019-04-14T07:20:56.937Z,19.57
2019-04-14T07:23:24.941Z,20.90
2019-04-14T07:25:52.909Z,20.70
2019-04-14T07:28:21.045Z,17.83
2019-04-14T07:31:00.493Z,17.60
2019-04-14T07:33:46.220Z,19.40
2019-04-14T07:36:32.189Z,18.10
2019-04-14T07:39:31.672Z,17.70
2019-04-14T07:42:18.474Z,17.27
2019-04-14T07:45:08.371Z,17.97
2019-04-14T07:47:53.889Z,16.13
2019-04-14T07:50:30.453Z,16.67
2019-04-14T07:53:16.649Z,17.00
2019-04-14T07:55:57.951Z,18.03
2019-04-14T07:59:02.933Z,16.23
2019-04-14T08:01:49.569Z,15.97
2019-04-14T08:04:29.376Z,16.73
2019-04-14T08:06:59.015Z,15.97
2019-04-14T08:09:27.006Z,16.33
2019-04-14T08:11:54.993Z,15.80
2019-04-14T08:14:22.700Z,15.60
2019-04-14T08:16:50.937Z,15.20
2019-04-14T08:19:18.899Z,15.53
2019-04-14T08:21:46.900Z,14.90
2019-04-14T08:24:14.625Z,16.27
2019-04-14T08:26:42.412Z,15.90
2019-04-14T08:29:10.468Z,16.57
2019-04-14T08:31:38.474Z,14.40
2019-04-14T08:34:06.696Z,15.57
2019-04-14T08:36:34.361Z,15.37
2019-04-14T08:39:02.416Z,16.40
2019-04-14T08:41:37.538Z,16.00
2019-04-14T08:44:19.655Z,14.27
2019-04-14T08:47:05.312Z,14.57
2019-04-14T08:49:52.638Z,14.77
2019-04-14T08:52:42.757Z,15.90
2019-04-14T08:55:20.884Z,15.00
2019-04-14T08:57:55.901Z,13.57
2019-04-14T09:00:39.441Z,14.90
2019-04-14T09:03:18.691Z,13.20
2019-04-14T09:06:08.250Z,14.40
2019-04-14T09:08:58.160Z,13.73
2019-04-14T09:11:34.037Z,13.43
2019-04-14T09:14:02.351Z,14.27
2019-04-14T09:16:30.314Z,13.90
2019-04-14T09:19:07.520Z,14.67
2019-04-14T09:21:28.284Z,14.37
2019-04-14T09:23:56.948Z,12.97
2019-04-14T09:26:25.037Z,13.87
2019-04-14T09:28:53.521Z,14.03
2019-04-14T09:31:22.088Z,13.63
2019-04-14T09:33:50.120Z,13.27
2019-04-14T09:36:17.765Z,14.60
2019-04-14T09:38:45.846Z,13.37
2019-04-14T09:41:13.946Z,12.63
2019-04-14T09:43:41.964Z,13.20
2019-04-14T09:46:10.153Z,13.60
2019-04-14T09:48:38.164Z,14.03
2019-04-14T09:51:06.123Z,13.27
2019-04-14T09:53:34.368Z,12.80
2019-04-14T09:56:02.741Z,14.23
2019-04-14T09:58:30.493Z,13.00
2019-04-14T10:00:58.472Z,12.30
2019-04-14T10:03:26.546Z,12.97
2019-04-14T10:05:54.600Z,13.53
2019-04-14T10:08:22.988Z,12.90
2019-04-14T10:10:51.032Z,12.60
2019-04-14T10:13:20.009Z,13.23
2019-04-14T10:15:47.962Z,13.20
2019-04-14T10:18:16.334Z,14.00
2019-04-14T10:20:44.888Z,13.23
2019-04-14T10:23:12.856Z,12.57
2019-04-14T10:25:41.545Z,13.70
2019-04-14T10:28:09.180Z,13.03
2019-04-14T10:30:37.666Z,13.53
2019-04-14T10:33:05.594Z,12.70
2019-04-14T10:35:33.719Z,12.73
2019-04-14T10:38:01.457Z,12.20
2019-04-14T10:40:29.402Z,12.43
2019-04-14T10:42:57.506Z,12.30
2019-04-14T10:45:25.443Z,12.17
2019-04-14T10:47:53.076Z,12.80
2019-04-14T10:50:30.842Z,12.23
2019-04-14T10:52:50.675Z,11.80
2019-04-14T10:55:18.434Z,12.50
2019-04-14T10:57:46.093Z,12.70
2019-04-14T11:00:15.809Z,12.77
2019-04-14T11:02:44.380Z,12.60
2019-04-14T11:05:12.205Z,12.90
2019-04-14T11:07:40.149Z,11.97
2019-04-14T11:10:09.312Z,11.83
2019-04-14T11:12:37.227Z,13.10
2019-04-14T11:15:05.772Z,12.37
2019-04-14T11:17:33.447Z,11.40
2019-04-14T11:20:01.224Z,11.40
2019-04-14T11:22:29.148Z,11.67
2019-04-14T11:24:57.424Z,12.13
2019-04-14T11:27:25.064Z,11.80
2019-04-14T11:29:54.126Z,10.53
2019-04-14T11:32:40.276Z,11.57
2019-04-14T11:35:16.238Z,11.00
2019-04-14T11:38:06.969Z,10.97
2019-04-14T11:40:39.905Z,11.00
2019-04-14T11:43:07.931Z,11.10
2019-04-14T11:45:35.936Z,10.43
2019-04-14T11:48:03.755Z,11.87
2019-04-14T11:50:31.760Z,10.23
2019-04-14T11:52:59.973Z,11.00
2019-04-14T11:55:28.303Z,10.83
2019-04-14T11:57:56.078Z,10.67
2019-04-14T12:01:01.769Z,11.27
2019-04-14T12:03:46.472Z,9.97
2019-04-14T12:06:32.163Z,10.97
2019-04-14T12:09:13.917Z,11.30
2019-04-14T12:11:41.572Z,10.70
2019-04-14T12:14:09.475Z,10.33
2019-04-14T12:16:37.133Z,9.57
2019-04-14T12:19:05.364Z,10.30
2019-04-14T12:21:33.639Z,9.90
2019-04-14T12:24:02.310Z,9.80
2019-04-14T12:26:31.057Z,10.47
2019-04-14T12:29:02.814Z,10.00
2019-04-14T12:31:29.283Z,10.07
2019-04-14T12:33:57.787Z,10.47
2019-04-14T12:36:26.282Z,10.00
2019-04-14T12:38:53.935Z,10.53
2019-04-14T12:41:31.051Z,10.00
2019-04-14T12:44:18.237Z,9.80
2019-04-14T12:47:14.272Z,10.00
2019-04-14T12:49:44.219Z,10.27
2019-04-14T12:52:21.357Z,10.37
2019-04-14T12:54:46.030Z,10.33
2019-04-14T12:57:15.502Z,10.20
2019-04-14T12:59:43.344Z,10.40
2019-04-14T13:02:30.678Z,9.57
2019-04-14T13:04:58.697Z,9.70
2019-04-14T13:07:26.343Z,10.13
2019-04-14T13:09:54.297Z,10.20
2019-04-14T13:12:22.602Z,10.30
2019-04-14T13:14:50.257Z,10.50
2019-04-14T13:17:18.308Z,11.60
2019-04-14T13:19:47.128Z,10.70
2019-04-14T13:22:15.060Z,10.10
2019-04-14T13:24:43.076Z,10.23
2019-04-14T13:27:11.026Z,10.20
2019-04-14T13:29:39.183Z,10.53
2019-04-14T13:32:07.920Z,9.50
2019-04-14T13:34:36.336Z,9.57
2019-04-14T13:37:04.494Z,10.80
2019-04-14T13:39:32.265Z,11.20
2019-04-14T13:42:00.903Z,11.77
2019-04-14T13:44:29.006Z,10.03
2019-04-14T13:46:57.065Z,10.97
2019-04-14T13:49:25.220Z,10.70
2019-04-14T13:51:53.504Z,10.63
2019-04-14T13:54:21.153Z,11.07
2019-04-14T13:56:48.817Z,10.07
2019-04-14T13:59:16.456Z,11.90
2019-04-14T14:01:44.525Z,10.00
2019-04-14T14:04:12.777Z,11.10
2019-04-14T14:06:41.196Z,11.70
2019-04-14T14:09:12.157Z,10.67
2019-04-14T14:12:11.332Z,10.20
2019-04-14T14:15:01.471Z,10.47
2019-04-14T14:17:43.980Z,10.47
2019-04-14T14:20:34.298Z,11.20
2019-04-14T14:23:10.505Z,9.93
2019-04-14T14:25:42.723Z,10.80
2019-04-14T14:28:10.384Z,10.90
2019-04-14T14:30:38.364Z,10.27
2019-04-14T14:33:06.340Z,9.97
2019-04-14T14:35:34.077Z,10.40
2019-04-14T14:38:01.742Z,10.10
2019-04-14T14:40:29.412Z,9.80
2019-04-14T14:42:57.085Z,10.57
2019-04-14T14:46:02.573Z,9.43
2019-04-14T14:48:33.935Z,11.00
2019-04-14T14:51:21.106Z,11.40
2019-04-14T14:53:49.128Z,11.90
2019-04-14T14:56:16.812Z,11.70
2019-04-14T14:58:45.479Z,11.13
2019-04-14T15:01:13.955Z,11.60
2019-04-14T15:03:41.640Z,10.93
2019-04-14T15:06:09.920Z,11.20
2019-04-14T15:08:37.644Z,11.77
2019-04-14T15:11:05.289Z,11.40
2019-04-14T15:13:33.626Z,10.83
2019-04-14T15:16:01.691Z,11.53
2019-04-14T15:18:29.644Z,11.30
2019-04-14T15:20:57.916Z,11.50
2019-04-14T15:23:25.639Z,12.67
2019-04-14T15:25:53.303Z,11.43
2019-04-14T15:28:21.220Z,11.20
2019-04-14T15:30:49.671Z,10.80
2019-04-14T15:33:18.159Z,11.00
2019-04-14T15:35:46.145Z,11.17
2019-04-14T15:38:14.119Z,11.33
2019-04-14T15:40:42.349Z,11.10
2019-04-14T15:43:10.673Z,11.30
2019-04-14T15:45:38.624Z,9.63
2019-04-14T15:48:06.593Z,11.00
2019-04-14T15:50:34.356Z,11.70
2019-04-14T15:53:02.778Z,10.80
2019-04-14T15:55:31.020Z,11.40
2019-04-14T15:58:10.286Z,10.83
2019-04-14T16:01:00.126Z,10.03
2019-04-14T16:03:36.674Z,10.67
2019-04-14T16:06:21.530Z,10.60
2019-04-14T16:09:12.379Z,10.90
2019-04-14T16:12:05.533Z,11.27
2019-04-14T16:14:45.897Z,10.33
2019-04-14T16:17:31.944Z,10.50
2019-04-14T16:20:04.573Z,10.83
2019-04-14T16:22:32.262Z,11.27
2019-04-14T16:25:00.369Z,11.83
2019-04-14T16:27:43.123Z,10.80
2019-04-14T16:30:24.118Z,10.70
2019-04-14T16:33:13.387Z,11.33
2019-04-14T16:35:41.193Z,11.60
2019-04-14T16:38:08.868Z,11.70
2019-04-14T16:40:36.689Z,11.90
2019-04-14T16:43:06.422Z,10.47
2019-04-14T16:45:33.923Z,10.50
2019-04-14T16:48:06.195Z,12.17
2019-04-14T16:50:37.643Z,12.30
2019-04-14T16:53:13.605Z,11.70
2019-04-14T16:56:07.777Z,11.40
2019-04-14T16:58:40.800Z,10.10
2019-04-14T17:01:31.087Z,11.20
2019-04-14T17:03:59.105Z,11.50
2019-04-14T17:06:26.759Z,12.13
2019-04-14T17:08:55.690Z,11.30
2019-04-14T17:11:33.097Z,11.67
2019-04-14T17:14:15.695Z,12.03
2019-04-14T17:17:12.147Z,11.50
2019-04-14T17:20:20.440Z,12.07
2019-04-14T17:23:07.519Z,11.50
2019-04-14T17:25:39.780Z,12.20
2019-04-14T17:28:24.728Z,12.40
2019-04-14T17:31:08.939Z,11.27
2019-04-14T17:33:42.339Z,11.97
2019-04-14T17:36:29.459Z,11.70
2019-04-14T17:39:15.265Z,11.80
2019-04-14T17:41:57.754Z,11.60
2019-04-14T17:44:40.013Z,10.50
2019-04-14T17:47:25.747Z,10.50
2019-04-14T17:50:20.365Z,10.33
2019-04-14T17:52:53.032Z,10.60
2019-04-14T17:55:49.978Z,10.93
2019-04-14T17:58:23.145Z,9.77
2019-04-14T18:01:10.195Z,9.80
2019-04-14T18:03:51.980Z,10.60
2019-04-14T18:06:23.304Z,11.12
2019-04-14T18:09:18.660Z,9.97
2019-04-14T18:12:14.968Z,10.00
2019-04-14T18:14:52.095Z,9.73
2019-04-14T18:17:37.732Z,9.90
2019-04-14T18:20:18.868Z,9.20
2019-04-14T18:22:46.755Z,9.40
2019-04-14T18:25:15.027Z,9.60
2019-04-14T18:27:50.677Z,9.43
2019-04-14T18:30:28.706Z,10.23
2019-04-14T18:33:15.868Z,9.70
2019-04-14T18:35:56.630Z,10.47
2019-04-14T18:38:42.328Z,11.00
2019-04-14T18:41:18.056Z,10.57
2019-04-14T18:44:00.293Z,11.00
2019-04-14T18:46:36.084Z,9.43
2019-04-14T18:49:12.592Z,11.10
2019-04-14T18:51:52.495Z,10.90
2019-04-14T18:54:39.574Z,10.83
2019-04-14T18:57:14.383Z,11.40
2019-04-14T18:59:46.798Z,11.20
2019-04-14T19:02:16.582Z,11.10
2019-04-14T19:04:44.344Z,10.80
2019-04-14T19:07:12.360Z,10.50
2019-04-14T19:09:40.260Z,10.97
2019-04-14T19:12:26.036Z,10.50
2019-04-14T19:15:10.977Z,10.60
2019-04-14T19:18:09.896Z,10.57
2019-04-14T19:20:39.520Z,10.30
2019-04-14T19:23:08.408Z,10.87
2019-04-14T19:25:36.582Z,11.13
2019-04-14T19:28:04.321Z,10.53
2019-04-14T19:30:32.048Z,11.10
2019-04-14T19:32:59.855Z,10.50
2019-04-14T19:35:28.233Z,11.23
2019-04-14T19:37:56.734Z,11.40
2019-04-14T19:40:24.885Z,10.30
2019-04-14T19:42:52.586Z,10.23
2019-04-14T19:45:20.548Z,9.93
2019-04-14T19:47:48.489Z,9.70
2019-04-14T19:50:16.505Z,10.07
2019-04-14T19:52:44.246Z,10.20
2019-04-14T19:55:20.295Z,10.07
2019-04-14T19:57:41.422Z,10.70
2019-04-14T20:00:09.141Z,9.90
2019-04-14T20:02:36.789Z,10.40
2019-04-14T20:05:04.846Z,10.40
2019-04-14T20:07:32.517Z,10.60
2019-04-14T20:10:00.561Z,9.80
2019-04-14T20:12:28.575Z,10.20
2019-04-14T20:14:56.564Z,10.10
2019-04-14T20:17:47.038Z,9.27
2019-04-14T20:20:32.533Z,9.23
2019-04-14T20:23:21.344Z,9.40
2019-04-14T20:26:14.159Z,9.27
2019-04-14T20:28:58.897Z,9.80
2019-04-14T20:31:51.472Z,8.73
2019-04-14T20:34:19.224Z,9.20
2019-04-14T20:36:47.672Z,9.10
2019-04-14T20:39:17.587Z,9.40
2019-04-14T20:41:45.746Z,9.50
2019-04-14T20:44:13.902Z,9.00
2019-04-14T20:46:42.000Z,9.00
2019-04-14T20:49:10.165Z,8.17
2019-04-14T20:51:38.176Z,8.97
2019-04-14T20:54:06.118Z,9.47
2019-04-14T20:56:34.073Z,9.10
2019-04-14T20:59:02.377Z,9.30
2019-04-14T21:01:31.980Z,8.90
2019-04-14T21:04:10.301Z,8.90
2019-04-14T21:07:02.905Z,9.10
2019-04-14T21:09:37.799Z,8.97
2019-04-14T21:12:11.686Z,9.87
2019-04-14T21:14:52.071Z,9.93
2019-04-14T21:17:28.857Z,9.40
2019-04-14T21:20:02.756Z,8.50
2019-04-14T21:22:35.511Z,7.53
2019-04-14T21:25:12.024Z,7.30
2019-04-14T21:28:02.105Z,7.70
2019-04-14T21:30:42.750Z,7.03
2019-04-14T21:33:29.877Z,7.90
2019-04-14T21:36:03.416Z,7.53
2019-04-14T21:41:06.985Z,7.90
2019-04-14T21:43:34.672Z,7.30
2019-04-14T21:46:02.649Z,7.70
2019-04-14T21:48:30.681Z,8.07
2019-04-14T21:50:58.735Z,7.73
2019-04-14T21:53:26.420Z,8.10
2019-04-14T21:55:54.803Z,9.40
2019-04-14T21:58:32.281Z,10.07
2019-04-14T22:01:43.320Z,11.20
2019-04-14T22:04:36.601Z,12.30
2019-04-14T22:07:16.920Z,11.77
2019-04-14T22:09:44.564Z,11.47
2019-04-14T22:12:12.525Z,11.60
2019-04-14T22:14:40.916Z,10.80
2019-04-14T22:17:08.982Z,10.80
2019-04-14T22:19:37.231Z,11.00
2019-04-14T22:22:05.343Z,11.60
2019-04-14T22:24:33.006Z,9.70
2019-04-14T22:27:00.981Z,9.37
2019-04-14T22:29:29.130Z,9.40
2019-04-14T22:31:57.228Z,10.63
2019-04-14T22:34:24.872Z,11.10
2019-04-14T22:36:53.549Z,10.77
2019-04-14T22:39:21.585Z,10.57
2019-04-14T22:41:49.892Z,10.63
2019-04-14T22:44:17.964Z,11.10
2019-04-14T22:46:46.240Z,9.27
2019-04-14T22:49:14.429Z,7.93
2019-04-14T22:51:42.421Z,8.73
2019-04-14T22:54:10.724Z,8.10
2019-04-14T22:56:39.800Z,7.87
2019-04-14T22:59:07.577Z,9.50
2019-04-14T23:01:37.176Z,8.70
2019-04-14T23:04:24.823Z,8.63
2019-04-14T23:07:20.741Z,8.50
2019-04-14T23:10:00.218Z,8.30
2019-04-14T23:12:48.889Z,9.17
2019-04-14T23:15:23.704Z,8.80
2019-04-14T23:18:01.004Z,8.10
2019-04-14T23:20:51.289Z,8.50
2019-04-14T23:23:50.281Z,8.30
2019-04-14T23:26:18.183Z,8.03
2019-04-14T23:28:46.068Z,7.03
2019-04-14T23:31:14.300Z,8.37
2019-04-14T23:33:42.077Z,7.17
2019-04-14T23:36:10.351Z,7.30
2019-04-14T23:38:38.013Z,6.70
2019-04-14T23:41:06.165Z,7.13
2019-04-14T23:43:34.432Z,6.80
2019-04-14T23:46:02.344Z,7.27
2019-04-14T23:48:30.089Z,7.20
2019-04-14T23:50:58.014Z,7.67
2019-04-14T23:53:26.614Z,6.73
2019-04-14T23:55:54.259Z,7.17
2019-04-14T23:58:22.571Z,6.70
